createdAt,value
2022-09-06T00:00:00.114Z,15.40
2022-09-06T00:05:00.033Z,14.40
2022-09-06T00:09:59.963Z,13.20
2022-09-06T00:14:59.893Z,11.50
2022-09-06T00:19:59.994Z,11.90
2022-09-06T00:24:59.766Z,12.50
2022-09-06T00:29:59.774Z,11.80
2022-09-06T00:34:59.635Z,11.70
2022-09-06T00:39:59.615Z,12.40
2022-09-06T00:44:59.496Z,13.60
2022-09-06T00:49:59.450Z,14.00
2022-09-06T00:54:59.403Z,15.80
2022-09-06T00:59:59.331Z,14.80
2022-09-06T01:04:59.258Z,15.50
2022-09-06T01:09:59.190Z,16.00
2022-09-06T01:14:59.129Z,14.30
2022-09-06T01:19:59.052Z,14.70
2022-09-06T01:24:59.201Z,15.50
2022-09-06T01:29:58.929Z,15.00
2022-09-06T01:34:58.850Z,16.40
2022-09-06T01:39:58.831Z,15.50
2022-09-06T01:44:58.742Z,19.30
2022-09-06T01:49:58.654Z,18.10
2022-09-06T01:54:58.581Z,16.80
2022-09-06T01:59:58.551Z,15.90
2022-09-06T02:04:58.461Z,16.70
2022-09-06T02:09:58.407Z,14.80
2022-09-06T02:14:58.334Z,15.70
2022-09-06T02:19:58.260Z,16.00
2022-09-06T02:24:58.195Z,16.40
2022-09-06T02:29:58.291Z,16.40
2022-09-06T02:34:58.044Z,15.20
2022-09-06T02:39:58.047Z,17.10
2022-09-06T02:44:57.915Z,16.90
2022-09-06T02:49:57.856Z,16.10
2022-09-06T02:54:57.807Z,16.70
2022-09-06T02:59:57.734Z,16.80
2022-09-06T03:04:57.668Z,16.60
2022-09-06T03:09:57.600Z,16.40
2022-09-06T03:14:57.536Z,16.70
2022-09-06T03:19:57.469Z,16.30
2022-09-06T03:24:57.448Z,16.10
2022-09-06T03:29:57.349Z,16.40
2022-09-06T03:34:57.427Z,16.30
2022-09-06T03:39:57.267Z,16.40
2022-09-06T03:44:57.163Z,16.30
2022-09-06T03:49:57.066Z,15.10
2022-09-06T03:54:56.999Z,15.60
2022-09-06T03:59:56.939Z,15.00
2022-09-06T04:04:56.859Z,16.00
2022-09-06T04:09:56.813Z,14.40
2022-09-06T04:14:56.736Z,17.20
2022-09-06T04:19:56.672Z,16.50
2022-09-06T04:24:56.632Z,17.40
2022-09-06T04:29:56.542Z,16.70
2022-09-06T04:34:56.482Z,16.10
2022-09-06T04:39:56.600Z,15.70
2022-09-06T04:44:56.352Z,18.00
2022-09-06T04:49:56.290Z,16.70
2022-09-06T04:54:56.209Z,17.00
2022-09-06T04:59:56.156Z,15.90
2022-09-06T05:04:56.076Z,15.00
2022-09-06T05:09:56.023Z,15.40
2022-09-06T05:14:55.971Z,14.40
2022-09-06T05:19:55.896Z,14.70
2022-09-06T05:24:55.816Z,15.50
2022-09-06T05:29:55.765Z,13.50
2022-09-06T05:34:55.685Z,14.30
2022-09-06T05:39:55.653Z,13.20
2022-09-06T05:44:55.565Z,13.20
2022-09-06T05:49:55.486Z,13.00
2022-09-06T05:54:55.426Z,11.90
2022-09-06T05:59:55.369Z,12.40
2022-09-06T06:04:55.314Z,11.10
2022-09-06T06:09:55.261Z,11.10
2022-09-06T06:14:55.181Z,11.50
2022-09-06T06:19:55.128Z,11.10
2022-09-06T06:24:55.063Z,9.80
2022-09-06T06:29:54.973Z,12.10
2022-09-06T06:34:54.916Z,10.60
2022-09-06T06:39:54.902Z,10.90
2022-09-06T06:44:54.786Z,10.30
2022-09-06T06:49:54.895Z,10.50
2022-09-06T06:54:54.646Z,9.90
2022-09-06T06:59:54.577Z,8.60
2022-09-06T07:04:54.528Z,11.80
2022-09-06T07:14:55.389Z,9.30
2022-09-06T07:24:55.260Z,6.50
2022-09-06T07:29:54.203Z,7.00
2022-09-06T07:34:54.233Z,9.10
2022-09-06T07:39:54.156Z,7.00
2022-09-06T07:44:53.997Z,12.10
2022-09-06T07:54:55.026Z,8.70
2022-09-06T07:59:53.846Z,7.90
2022-09-06T08:04:53.762Z,7.10
2022-09-06T08:09:53.748Z,7.90
2022-09-06T08:14:53.687Z,7.80
2022-09-06T08:19:53.601Z,8.70
2022-09-06T08:24:53.478Z,7.70
2022-09-06T08:29:53.430Z,7.70
2022-09-06T08:34:53.355Z,7.30
2022-09-06T08:39:53.326Z,7.60
2022-09-06T08:49:53.165Z,7.40
2022-09-06T08:54:53.081Z,7.30
2022-09-06T08:59:53.183Z,7.60
2022-09-06T09:04:52.953Z,6.70
2022-09-06T09:09:52.896Z,5.90
2022-09-06T09:14:52.829Z,5.90
2022-09-06T09:19:52.779Z,7.80
2022-09-06T09:24:52.743Z,7.00
2022-09-06T09:34:53.618Z,6.70
2022-09-06T09:39:52.564Z,6.50
2022-09-06T09:44:52.460Z,8.00
2022-09-06T09:49:52.444Z,6.10
2022-09-06T09:54:52.333Z,7.30
2022-09-06T09:59:52.253Z,6.50
2022-09-06T10:04:52.365Z,6.90
2022-09-06T10:09:52.142Z,7.50
2022-09-06T10:14:52.066Z,7.90
2022-09-06T10:19:52.034Z,8.00
2022-09-06T10:24:51.946Z,8.20
2022-09-06T10:29:51.872Z,7.00
2022-09-06T10:34:51.834Z,6.20
2022-09-06T10:39:51.812Z,7.10
2022-09-06T10:44:51.671Z,7.00
2022-09-06T10:49:51.621Z,6.70
2022-09-06T10:54:51.564Z,6.00
2022-09-06T10:59:52.019Z,5.80
2022-09-06T11:09:52.395Z,6.10
2022-09-06T11:14:51.320Z,5.90
2022-09-06T11:19:51.291Z,7.70
2022-09-06T11:24:51.177Z,7.20
2022-09-06T11:29:51.118Z,6.70
2022-09-06T11:34:51.057Z,6.90
2022-09-06T11:44:51.951Z,5.40
2022-09-06T11:49:50.880Z,6.40
2022-09-06T11:54:50.844Z,6.30
2022-09-06T11:59:50.764Z,7.90
2022-09-06T12:04:50.686Z,6.30
2022-09-06T12:09:50.627Z,6.70
2022-09-06T12:14:50.673Z,5.90
2022-09-06T12:19:50.486Z,7.10
2022-09-06T12:24:50.417Z,6.20
2022-09-06T12:29:50.359Z,4.70
2022-09-06T12:39:51.322Z,7.20
2022-09-06T12:44:50.172Z,5.30
2022-09-06T12:49:50.196Z,6.30
2022-09-06T12:54:50.026Z,7.00
2022-09-06T12:59:49.964Z,6.50
2022-09-06T13:04:49.892Z,5.80
2022-09-06T13:09:49.828Z,7.00
2022-09-06T13:14:49.767Z,5.40
2022-09-06T13:19:49.887Z,6.60
2022-09-06T13:24:49.692Z,6.30
2022-09-06T13:29:49.619Z,7.00
2022-09-06T13:34:49.550Z,7.30
2022-09-06T13:39:49.521Z,5.60
2022-09-06T13:44:49.381Z,11.60
2022-09-06T13:49:49.312Z,6.30
2022-09-06T13:54:49.245Z,8.50
2022-09-06T13:59:49.202Z,7.00
2022-09-06T14:04:49.117Z,7.90
2022-09-06T14:09:49.053Z,9.00
2022-09-06T14:14:48.987Z,9.10
2022-09-06T14:19:48.946Z,8.00
2022-09-06T14:24:48.895Z,8.60
2022-09-06T14:29:48.813Z,9.00
2022-09-06T14:34:48.718Z,9.60
2022-09-06T14:39:48.701Z,10.60
2022-09-06T14:44:48.584Z,11.80
2022-09-06T14:49:48.541Z,12.40
2022-09-06T14:54:48.448Z,11.40
2022-09-06T14:59:48.406Z,11.00
2022-09-06T15:04:48.335Z,11.00
2022-09-06T15:09:48.253Z,11.70
2022-09-06T15:14:48.193Z,13.10
2022-09-06T15:19:48.136Z,12.30
2022-09-06T15:24:48.080Z,13.70
2022-09-06T15:29:48.016Z,13.40
2022-09-06T15:34:47.954Z,12.30
2022-09-06T15:39:47.940Z,12.10
2022-09-06T15:44:47.826Z,13.30
2022-09-06T15:49:47.757Z,13.00
2022-09-06T15:54:47.657Z,11.60
2022-09-06T15:59:47.617Z,14.30
2022-09-06T16:04:47.527Z,13.00
2022-09-06T16:09:47.476Z,13.50
2022-09-06T16:14:47.641Z,15.40
2022-09-06T16:19:47.340Z,17.40
2022-09-06T16:24:47.272Z,11.50
2022-09-06T16:29:47.285Z,13.80
2022-09-06T16:34:47.370Z,14.70
2022-09-06T16:39:47.110Z,15.30
2022-09-06T16:44:47.044Z,14.20
2022-09-06T16:49:46.962Z,17.80
2022-09-06T16:54:46.881Z,21.50
2022-09-06T16:59:46.817Z,19.60
2022-09-06T17:04:46.775Z,26.50
2022-09-06T17:09:46.684Z,20.70
2022-09-06T17:14:46.616Z,18.20
2022-09-06T17:19:46.569Z,16.80
2022-09-06T17:24:46.642Z,17.50
2022-09-06T17:29:46.449Z,17.80
2022-09-06T17:34:46.394Z,18.70
2022-09-06T17:39:46.454Z,21.50
2022-09-06T17:44:46.267Z,30.70
2022-09-06T17:49:46.190Z,24.30
2022-09-06T17:54:46.130Z,19.10
2022-09-06T17:59:46.053Z,20.40
2022-09-06T18:04:46.028Z,14.80
2022-09-06T18:09:46.019Z,20.50
2022-09-06T18:14:45.892Z,21.00
2022-09-06T18:19:45.761Z,20.30
2022-09-06T18:24:45.684Z,14.10
2022-09-06T18:29:45.685Z,13.70
2022-09-06T18:34:45.589Z,11.80
2022-09-06T18:39:45.556Z,10.70
2022-09-06T18:44:45.614Z,13.90
2022-09-06T18:49:45.375Z,13.50
2022-09-06T18:54:45.338Z,14.20
2022-09-06T18:59:45.247Z,13.50
2022-09-06T19:04:45.167Z,16.60
2022-09-06T19:09:45.155Z,18.20
2022-09-06T19:14:45.057Z,16.40
2022-09-06T19:19:45.007Z,17.10
2022-09-06T19:24:44.918Z,19.00
2022-09-06T19:29:44.829Z,20.40
2022-09-06T19:34:44.769Z,18.50
2022-09-06T19:39:44.736Z,20.40
2022-09-06T19:44:44.630Z,22.50
2022-09-06T19:49:44.592Z,23.80
2022-09-06T19:54:44.494Z,22.10
2022-09-06T19:59:44.442Z,22.90
2022-09-06T20:04:44.372Z,21.50
2022-09-06T20:09:44.311Z,20.60
2022-09-06T20:14:44.251Z,19.50
2022-09-06T20:19:44.178Z,18.00
2022-09-06T20:24:44.103Z,20.30
2022-09-06T20:29:44.055Z,19.00
2022-09-06T20:34:43.973Z,20.00
2022-09-06T20:39:43.953Z,22.90
2022-09-06T20:44:43.855Z,19.70
2022-09-06T20:49:43.801Z,19.80
2022-09-06T20:54:43.715Z,19.00
2022-09-06T20:59:43.654Z,19.10
2022-09-06T21:04:43.579Z,20.00
2022-09-06T21:09:43.518Z,17.70
2022-09-06T21:14:43.446Z,17.80
2022-09-06T21:19:43.377Z,21.10
2022-09-06T21:24:43.305Z,20.80
2022-09-06T21:29:43.269Z,16.20
2022-09-06T21:34:43.171Z,19.80
2022-09-06T21:39:43.150Z,20.10
2022-09-06T21:44:43.043Z,22.40
2022-09-06T21:49:42.981Z,22.10
2022-09-06T21:54:42.919Z,20.80
2022-09-06T21:59:42.850Z,23.60
2022-09-06T22:04:42.787Z,23.50
2022-09-06T22:09:42.712Z,26.10
2022-09-06T22:14:42.650Z,25.10
2022-09-06T22:19:42.612Z,26.40
2022-09-06T22:24:42.532Z,22.60
2022-09-06T22:29:42.454Z,23.20
2022-09-06T22:34:42.423Z,27.40
2022-09-06T22:39:42.347Z,27.90
2022-09-06T22:44:42.262Z,25.80
2022-09-06T22:49:42.184Z,25.30
2022-09-06T22:54:42.133Z,24.60
2022-09-06T22:59:42.070Z,28.10
2022-09-06T23:04:42.071Z,22.80
2022-09-06T23:09:41.944Z,24.20
2022-09-06T23:14:41.877Z,26.90
2022-09-06T23:19:41.819Z,29.50
2022-09-06T23:24:41.790Z,28.20
2022-09-06T23:29:41.675Z,29.00
2022-09-06T23:34:41.629Z,25.30
2022-09-06T23:39:41.564Z,27.20
2022-09-06T23:44:41.487Z,26.30
2022-09-06T23:49:41.424Z,27.80
2022-09-06T23:54:41.359Z,28.80
2022-09-06T23:59:41.284Z,27.70
